KEPH/EPH METAR and TAF weather

Enter ICAO airport designator
Station Type Date Time Source
KEPH METAR 2022/06/30 01:53 UTC NOAA

KEPH 300153Z AUTO 24006KT 10SM BKN110 27/04 A2997 RMK AO2 SLP143 T02720044


Station Type Date Time Source
KEPH Decoded METAR 2022/06/30 01:53 UTC NOAA

EPHRATA MUNICIPAL AIRPORT, WA, United States (KEPH) 47-18N 119-31W 383M
Jun 29, 2022 - 09:53 PM EDT / 2022.06.30 0153 UTC
Wind: from the WSW (240 degrees) at 7 MPH (6 KT):0
Visibility: 10 mile(s):0
Sky conditions: mostly cloudy
Temperature: 81.0 F (27.2 C)
Dew Point: 39.9 F (4.4 C)
Relative Humidity: 23%
Pressure (altimeter): 29.97 in. Hg (1014 hPa)
ob: KEPH 300153Z AUTO 24006KT 10SM BKN110 27/04 A2997 RMK AO2 SLP143 T02720044
cycle: 2

Station Type Date Time Source
KEPH TAF UTC NOAA

Error!

Example: see airport list